sensor_id;sensor_type;location;lat;lon;timestamp;P1;durP1;ratioP1;P2;durP2;ratioP2
51080;SDS011;37130;55.670;37.596;2023-04-25T00:02:04;0.00;;;0.00;;
51080;SDS011;37130;55.670;37.596;2023-04-25T00:04:32;0.00;;;0.00;;
51080;SDS011;37130;55.670;37.596;2023-04-25T00:07:00;0.00;;;0.00;;
51080;SDS011;37130;55.670;37.596;2023-04-25T00:09:29;0.00;;;0.00;;
51080;SDS011;37130;55.670;37.596;2023-04-25T00:11:56;0.00;;;0.00;;
51080;SDS011;37130;55.670;37.596;2023-04-25T00:14:24;0.00;;;0.00;;
51080;SDS011;37130;55.670;37.596;2023-04-25T00:16:52;0.00;;;0.00;;
51080;SDS011;37130;55.670;37.596;2023-04-25T00:19:20;0.00;;;0.00;;
51080;SDS011;37130;55.670;37.596;2023-04-25T00:21:48;0.00;;;0.00;;
51080;SDS011;37130;55.670;37.596;2023-04-25T00:24:16;0.00;;;0.00;;
51080;SDS011;37130;55.670;37.596;2023-04-25T00:26:43;0.00;;;0.00;;
51080;SDS011;37130;55.670;37.596;2023-04-25T00:29:11;0.00;;;0.00;;
51080;SDS011;37130;55.670;37.596;2023-04-25T00:31:39;0.00;;;0.00;;
51080;SDS011;37130;55.670;37.596;2023-04-25T00:34:06;0.00;;;0.00;;
51080;SDS011;37130;55.670;37.596;2023-04-25T00:36:35;0.00;;;0.00;;
51080;SDS011;37130;55.670;37.596;2023-04-25T00:39:03;0.00;;;0.00;;
51080;SDS011;37130;55.670;37.596;2023-04-25T00:41:31;0.00;;;0.00;;
51080;SDS011;37130;55.670;37.596;2023-04-25T00:43:59;0.00;;;0.00;;
51080;SDS011;37130;55.670;37.596;2023-04-25T00:46:30;0.00;;;0.00;;
51080;SDS011;37130;55.670;37.596;2023-04-25T00:48:58;0.00;;;0.00;;
51080;SDS011;37130;55.670;37.596;2023-04-25T00:51:25;0.00;;;0.00;;
51080;SDS011;37130;55.670;37.596;2023-04-25T00:53:54;0.00;;;0.00;;
51080;SDS011;37130;55.670;37.596;2023-04-25T00:56:21;0.00;;;0.00;;
51080;SDS011;37130;55.670;37.596;2023-04-25T00:58:49;0.00;;;0.00;;
51080;SDS011;37130;55.670;37.596;2023-04-25T01:01:20;0.00;;;0.00;;
51080;SDS011;37130;55.670;37.596;2023-04-25T01:03:47;0.00;;;0.00;;
51080;SDS011;37130;55.670;37.596;2023-04-25T01:06:17;0.00;;;0.00;;
51080;SDS011;37130;55.670;37.596;2023-04-25T01:08:45;0.00;;;0.00;;
51080;SDS011;37130;55.670;37.596;2023-04-25T01:11:12;0.00;;;0.00;;
51080;SDS011;37130;55.670;37.596;2023-04-25T01:13:40;0.00;;;0.00;;
51080;SDS011;37130;55.670;37.596;2023-04-25T01:16:09;0.00;;;0.00;;
51080;SDS011;37130;55.670;37.596;2023-04-25T01:18:38;0.00;;;0.00;;
51080;SDS011;37130;55.670;37.596;2023-04-25T01:21:07;0.00;;;0.00;;
51080;SDS011;37130;55.670;37.596;2023-04-25T01:23:38;0.00;;;0.00;;
51080;SDS011;37130;55.670;37.596;2023-04-25T01:26:08;0.00;;;0.00;;
51080;SDS011;37130;55.670;37.596;2023-04-25T01:28:38;0.00;;;0.00;;
51080;SDS011;37130;55.670;37.596;2023-04-25T01:31:09;0.00;;;0.00;;
51080;SDS011;37130;55.670;37.596;2023-04-25T01:33:38;0.00;;;0.00;;
51080;SDS011;37130;55.670;37.596;2023-04-25T01:36:06;0.00;;;0.00;;
51080;SDS011;37130;55.670;37.596;2023-04-25T01:38:34;0.00;;;0.00;;
51080;SDS011;37130;55.670;37.596;2023-04-25T01:41:02;0.00;;;0.00;;
51080;SDS011;37130;55.670;37.596;2023-04-25T01:43:30;0.00;;;0.00;;
51080;SDS011;37130;55.670;37.596;2023-04-25T01:45:58;0.00;;;0.00;;
51080;SDS011;37130;55.670;37.596;2023-04-25T01:48:26;0.00;;;0.00;;
51080;SDS011;37130;55.670;37.596;2023-04-25T01:50:54;0.00;;;0.00;;
51080;SDS011;37130;55.670;37.596;2023-04-25T01:53:22;0.00;;;0.00;;
51080;SDS011;37130;55.670;37.596;2023-04-25T01:55:50;0.00;;;0.00;;
51080;SDS011;37130;55.670;37.596;2023-04-25T01:58:20;0.00;;;0.00;;
51080;SDS011;37130;55.670;37.596;2023-04-25T02:01:27;0.00;;;0.00;;
51080;SDS011;37130;55.670;37.596;2023-04-25T02:04:11;0.00;;;0.00;;
51080;SDS011;37130;55.670;37.596;2023-04-25T02:06:40;0.00;;;0.00;;
51080;SDS011;37130;55.670;37.596;2023-04-25T02:09:08;0.00;;;0.00;;
51080;SDS011;37130;55.670;37.596;2023-04-25T02:11:40;0.00;;;0.00;;
51080;SDS011;37130;55.670;37.596;2023-04-25T02:14:37;0.00;;;0.00;;
51080;SDS011;37130;55.670;37.596;2023-04-25T02:17:15;0.00;;;0.00;;
51080;SDS011;37130;55.670;37.596;2023-04-25T02:19:44;0.00;;;0.00;;
51080;SDS011;37130;55.670;37.596;2023-04-25T02:22:12;0.00;;;0.00;;
51080;SDS011;37130;55.670;37.596;2023-04-25T02:24:40;0.00;;;0.00;;
51080;SDS011;37130;55.670;37.596;2023-04-25T02:27:07;0.00;;;0.00;;
51080;SDS011;37130;55.670;37.596;2023-04-25T02:29:35;0.00;;;0.00;;
51080;SDS011;37130;55.670;37.596;2023-04-25T02:32:02;0.00;;;0.00;;
51080;SDS011;37130;55.670;37.596;2023-04-25T02:34:30;0.00;;;0.00;;
51080;SDS011;37130;55.670;37.596;2023-04-25T02:36:59;0.00;;;0.00;;
51080;SDS011;37130;55.670;37.596;2023-04-25T02:39:27;0.00;;;0.00;;
51080;SDS011;37130;55.670;37.596;2023-04-25T02:41:55;0.00;;;0.00;;
51080;SDS011;37130;55.670;37.596;2023-04-25T02:44:22;0.00;;;0.00;;
51080;SDS011;37130;55.670;37.596;2023-04-25T02:46:50;0.00;;;0.00;;
51080;SDS011;37130;55.670;37.596;2023-04-25T02:49:17;0.00;;;0.00;;
51080;SDS011;37130;55.670;37.596;2023-04-25T02:51:45;0.00;;;0.00;;
51080;SDS011;37130;55.670;37.596;2023-04-25T02:54:13;0.00;;;0.00;;
51080;SDS011;37130;55.670;37.596;2023-04-25T02:56:43;0.00;;;0.00;;
51080;SDS011;37130;55.670;37.596;2023-04-25T02:59:17;0.00;;;0.00;;
51080;SDS011;37130;55.670;37.596;2023-04-25T03:01:44;0.00;;;0.00;;
51080;SDS011;37130;55.670;37.596;2023-04-25T03:04:12;0.00;;;0.00;;
51080;SDS011;37130;55.670;37.596;2023-04-25T03:06:40;0.00;;;0.00;;
51080;SDS011;37130;55.670;37.596;2023-04-25T03:09:07;0.00;;;0.00;;
51080;SDS011;37130;55.670;37.596;2023-04-25T03:11:35;0.00;;;0.00;;
51080;SDS011;37130;55.670;37.596;2023-04-25T03:14:04;0.00;;;0.00;;
51080;SDS011;37130;55.670;37.596;2023-04-25T03:16:32;0.00;;;0.00;;
51080;SDS011;37130;55.670;37.596;2023-04-25T03:18:59;0.00;;;0.00;;
51080;SDS011;37130;55.670;37.596;2023-04-25T03:21:27;0.00;;;0.00;;
51080;SDS011;37130;55.670;37.596;2023-04-25T03:23:57;0.00;;;0.00;;
51080;SDS011;37130;55.670;37.596;2023-04-25T03:26:26;0.00;;;0.00;;
51080;SDS011;37130;55.670;37.596;2023-04-25T03:28:53;0.00;;;0.00;;
51080;SDS011;37130;55.670;37.596;2023-04-25T03:31:21;0.00;;;0.00;;
51080;SDS011;37130;55.670;37.596;2023-04-25T03:33:49;0.00;;;0.00;;
51080;SDS011;37130;55.670;37.596;2023-04-25T03:36:20;0.00;;;0.00;;
51080;SDS011;37130;55.670;37.596;2023-04-25T03:38:47;0.00;;;0.00;;
51080;SDS011;37130;55.670;37.596;2023-04-25T03:41:16;0.00;;;0.00;;
51080;SDS011;37130;55.670;37.596;2023-04-25T03:43:47;0.00;;;0.00;;
51080;SDS011;37130;55.670;37.596;2023-04-25T03:46:16;0.00;;;0.00;;
51080;SDS011;37130;55.670;37.596;2023-04-25T03:48:45;0.00;;;0.00;;
51080;SDS011;37130;55.670;37.596;2023-04-25T03:51:19;0.00;;;0.00;;
51080;SDS011;37130;55.670;37.596;2023-04-25T03:53:47;0.00;;;0.00;;
51080;SDS011;37130;55.670;37.596;2023-04-25T03:56:18;0.00;;;0.00;;
51080;SDS011;37130;55.670;37.596;2023-04-25T03:58:49;0.00;;;0.00;;
51080;SDS011;37130;55.670;37.596;2023-04-25T04:01:19;0.00;;;0.00;;
51080;SDS011;37130;55.670;37.596;2023-04-25T04:03:47;0.00;;;0.00;;
51080;SDS011;37130;55.670;37.596;2023-04-25T04:06:16;0.00;;;0.00;;
51080;SDS011;37130;55.670;37.596;2023-04-25T04:08:48;0.00;;;0.00;;
51080;SDS011;37130;55.670;37.596;2023-04-25T04:11:16;0.00;;;0.00;;
51080;SDS011;37130;55.670;37.596;2023-04-25T04:13:43;0.00;;;0.00;;
51080;SDS011;37130;55.670;37.596;2023-04-25T04:16:11;0.00;;;0.00;;
51080;SDS011;37130;55.670;37.596;2023-04-25T04:18:39;0.00;;;0.00;;
51080;SDS011;37130;55.670;37.596;2023-04-25T04:21:06;0.00;;;0.00;;
51080;SDS011;37130;55.670;37.596;2023-04-25T04:23:37;0.00;;;0.00;;
51080;SDS011;37130;55.670;37.596;2023-04-25T04:26:07;0.00;;;0.00;;
51080;SDS011;37130;55.670;37.596;2023-04-25T04:28:56;0.00;;;0.00;;
51080;SDS011;37130;55.670;37.596;2023-04-25T04:31:41;0.00;;;0.00;;
51080;SDS011;37130;55.670;37.596;2023-04-25T04:34:10;0.00;;;0.00;;
51080;SDS011;37130;55.670;37.596;2023-04-25T04:36:38;0.00;;;0.00;;
51080;SDS011;37130;55.670;37.596;2023-04-25T04:39:07;0.00;;;0.00;;
51080;SDS011;37130;55.670;37.596;2023-04-25T04:41:43;0.00;;;0.00;;
51080;SDS011;37130;55.670;37.596;2023-04-25T04:44:14;0.00;;;0.00;;
51080;SDS011;37130;55.670;37.596;2023-04-25T04:47:02;0.00;;;0.00;;
51080;SDS011;37130;55.670;37.596;2023-04-25T04:49:53;0.00;;;0.00;;
51080;SDS011;37130;55.670;37.596;2023-04-25T04:52:42;0.00;;;0.00;;
51080;SDS011;37130;55.670;37.596;2023-04-25T04:55:27;0.00;;;0.00;;
51080;SDS011;37130;55.670;37.596;2023-04-25T04:58:09;0.00;;;0.00;;
51080;SDS011;37130;55.670;37.596;2023-04-25T05:00:57;0.00;;;0.00;;
51080;SDS011;37130;55.670;37.596;2023-04-25T05:03:28;0.00;;;0.00;;
51080;SDS011;37130;55.670;37.596;2023-04-25T05:06:24;0.00;;;0.00;;
51080;SDS011;37130;55.670;37.596;2023-04-25T05:09:27;0.00;;;0.00;;
51080;SDS011;37130;55.670;37.596;2023-04-25T05:12:08;0.10;;;0.10;;
51080;SDS011;37130;55.670;37.596;2023-04-25T05:14:56;0.10;;;0.10;;
51080;SDS011;37130;55.670;37.596;2023-04-25T05:20:28;0.10;;;0.10;;
51080;SDS011;37130;55.670;37.596;2023-04-25T05:23:18;0.10;;;0.10;;
51080;SDS011;37130;55.670;37.596;2023-04-25T05:26:06;0.10;;;0.10;;
51080;SDS011;37130;55.670;37.596;2023-04-25T05:29:00;0.13;;;0.13;;
51080;SDS011;37130;55.670;37.596;2023-04-25T05:31:44;0.10;;;0.10;;
51080;SDS011;37130;55.670;37.596;2023-04-25T05:34:15;0.10;;;0.10;;
51080;SDS011;37130;55.670;37.596;2023-04-25T05:37:04;0.00;;;0.00;;
51080;SDS011;37130;55.670;37.596;2023-04-25T05:39:34;0.10;;;0.10;;
51080;SDS011;37130;55.670;37.596;2023-04-25T05:42:22;0.10;;;0.10;;
51080;SDS011;37130;55.670;37.596;2023-04-25T05:45:19;0.10;;;0.10;;
51080;SDS011;37130;55.670;37.596;2023-04-25T05:48:22;0.05;;;0.05;;
51080;SDS011;37130;55.670;37.596;2023-04-25T05:50:58;0.10;;;0.10;;
51080;SDS011;37130;55.670;37.596;2023-04-25T05:53:44;0.10;;;0.10;;
51080;SDS011;37130;55.670;37.596;2023-04-25T05:56:13;0.10;;;0.10;;
51080;SDS011;37130;55.670;37.596;2023-04-25T05:58:41;0.10;;;0.10;;
51080;SDS011;37130;55.670;37.596;2023-04-25T06:01:11;0.10;;;0.10;;
51080;SDS011;37130;55.670;37.596;2023-04-25T06:03:39;0.10;;;0.10;;
51080;SDS011;37130;55.670;37.596;2023-04-25T06:06:11;0.10;;;0.10;;
51080;SDS011;37130;55.670;37.596;2023-04-25T06:08:40;0.10;;;0.10;;
51080;SDS011;37130;55.670;37.596;2023-04-25T06:11:10;0.10;;;0.10;;
51080;SDS011;37130;55.670;37.596;2023-04-25T06:13:38;0.10;;;0.10;;
51080;SDS011;37130;55.670;37.596;2023-04-25T06:16:06;0.20;;;0.20;;
51080;SDS011;37130;55.670;37.596;2023-04-25T06:18:34;0.20;;;0.20;;
51080;SDS011;37130;55.670;37.596;2023-04-25T06:21:01;0.10;;;0.10;;
51080;SDS011;37130;55.670;37.596;2023-04-25T06:23:30;0.20;;;0.20;;
51080;SDS011;37130;55.670;37.596;2023-04-25T06:26:02;0.10;;;0.10;;
51080;SDS011;37130;55.670;37.596;2023-04-25T06:28:31;0.20;;;0.20;;
51080;SDS011;37130;55.670;37.596;2023-04-25T06:30:59;0.20;;;0.20;;
51080;SDS011;37130;55.670;37.596;2023-04-25T06:33:26;0.13;;;0.13;;
51080;SDS011;37130;55.670;37.596;2023-04-25T06:35:56;0.30;;;0.30;;
51080;SDS011;37130;55.670;37.596;2023-04-25T06:38:26;0.30;;;0.30;;
51080;SDS011;37130;55.670;37.596;2023-04-25T06:40:56;0.20;;;0.20;;
51080;SDS011;37130;55.670;37.596;2023-04-25T06:43:26;0.30;;;0.30;;
51080;SDS011;37130;55.670;37.596;2023-04-25T06:46:17;0.30;;;0.30;;
51080;SDS011;37130;55.670;37.596;2023-04-25T06:48:47;0.22;;;0.22;;
51080;SDS011;37130;55.670;37.596;2023-04-25T06:51:16;0.22;;;0.22;;
51080;SDS011;37130;55.670;37.596;2023-04-25T06:53:44;0.20;;;0.20;;
51080;SDS011;37130;55.670;37.596;2023-04-25T06:56:25;0.10;;;0.10;;
51080;SDS011;37130;55.670;37.596;2023-04-25T06:59:01;0.17;;;0.17;;
51080;SDS011;37130;55.670;37.596;2023-04-25T07:01:32;0.15;;;0.15;;
51080;SDS011;37130;55.670;37.596;2023-04-25T07:04:03;0.17;;;0.17;;
51080;SDS011;37130;55.670;37.596;2023-04-25T07:06:34;0.10;;;0.10;;
51080;SDS011;37130;55.670;37.596;2023-04-25T07:09:05;0.20;;;0.20;;
51080;SDS011;37130;55.670;37.596;2023-04-25T07:11:33;0.30;;;0.30;;
51080;SDS011;37130;55.670;37.596;2023-04-25T07:14:01;0.20;;;0.20;;
51080;SDS011;37130;55.670;37.596;2023-04-25T07:16:29;0.20;;;0.20;;
51080;SDS011;37130;55.670;37.596;2023-04-25T07:18:57;0.20;;;0.20;;
51080;SDS011;37130;55.670;37.596;2023-04-25T07:21:26;0.20;;;0.20;;
51080;SDS011;37130;55.670;37.596;2023-04-25T07:23:55;0.20;;;0.20;;
51080;SDS011;37130;55.670;37.596;2023-04-25T07:26:28;0.20;;;0.20;;
51080;SDS011;37130;55.670;37.596;2023-04-25T07:29:14;0.17;;;0.17;;
51080;SDS011;37130;55.670;37.596;2023-04-25T07:31:42;0.20;;;0.20;;
51080;SDS011;37130;55.670;37.596;2023-04-25T07:34:10;0.17;;;0.17;;
51080;SDS011;37130;55.670;37.596;2023-04-25T07:36:38;0.20;;;0.20;;
51080;SDS011;37130;55.670;37.596;2023-04-25T07:39:06;0.10;;;0.10;;
51080;SDS011;37130;55.670;37.596;2023-04-25T07:41:33;0.10;;;0.10;;
51080;SDS011;37130;55.670;37.596;2023-04-25T07:44:02;0.10;;;0.10;;
51080;SDS011;37130;55.670;37.596;2023-04-25T07:46:31;0.10;;;0.10;;
51080;SDS011;37130;55.670;37.596;2023-04-25T07:48:58;0.10;;;0.10;;
51080;SDS011;37130;55.670;37.596;2023-04-25T07:51:26;0.10;;;0.10;;
51080;SDS011;37130;55.670;37.596;2023-04-25T07:53:59;0.00;;;0.00;;
51080;SDS011;37130;55.670;37.596;2023-04-25T07:56:28;0.10;;;0.10;;
51080;SDS011;37130;55.670;37.596;2023-04-25T07:59:12;0.00;;;0.00;;
51080;SDS011;37130;55.670;37.596;2023-04-25T08:01:41;0.10;;;0.10;;
51080;SDS011;37130;55.670;37.596;2023-04-25T08:04:10;0.10;;;0.10;;
51080;SDS011;37130;55.670;37.596;2023-04-25T08:06:58;0.05;;;0.00;;
51080;SDS011;37130;55.670;37.596;2023-04-25T08:09:34;0.00;;;0.00;;
51080;SDS011;37130;55.670;37.596;2023-04-25T08:12:06;0.10;;;0.10;;
51080;SDS011;37130;55.670;37.596;2023-04-25T08:14:35;0.10;;;0.10;;
51080;SDS011;37130;55.670;37.596;2023-04-25T08:17:04;0.00;;;0.00;;
51080;SDS011;37130;55.670;37.596;2023-04-25T08:19:38;0.00;;;0.00;;
51080;SDS011;37130;55.670;37.596;2023-04-25T08:22:10;0.00;;;0.00;;
51080;SDS011;37130;55.670;37.596;2023-04-25T08:24:50;0.00;;;0.00;;
51080;SDS011;37130;55.670;37.596;2023-04-25T08:27:19;0.00;;;0.00;;
51080;SDS011;37130;55.670;37.596;2023-04-25T08:29:47;0.00;;;0.00;;
51080;SDS011;37130;55.670;37.596;2023-04-25T08:32:15;0.00;;;0.00;;
51080;SDS011;37130;55.670;37.596;2023-04-25T08:34:56;0.00;;;0.00;;
51080;SDS011;37130;55.670;37.596;2023-04-25T08:37:23;0.00;;;0.00;;
51080;SDS011;37130;55.670;37.596;2023-04-25T08:39:59;0.00;;;0.00;;
51080;SDS011;37130;55.670;37.596;2023-04-25T08:42:49;0.00;;;0.00;;
51080;SDS011;37130;55.670;37.596;2023-04-25T08:45:18;0.00;;;0.00;;
51080;SDS011;37130;55.670;37.596;2023-04-25T08:47:45;0.00;;;0.00;;
51080;SDS011;37130;55.670;37.596;2023-04-25T08:50:15;0.00;;;0.00;;
51080;SDS011;37130;55.670;37.596;2023-04-25T08:52:45;0.00;;;0.00;;
51080;SDS011;37130;55.670;37.596;2023-04-25T08:55:15;0.00;;;0.00;;
51080;SDS011;37130;55.670;37.596;2023-04-25T08:57:42;0.00;;;0.00;;
51080;SDS011;37130;55.670;37.596;2023-04-25T09:00:12;0.00;;;0.00;;
51080;SDS011;37130;55.670;37.596;2023-04-25T09:02:43;0.00;;;0.00;;
51080;SDS011;37130;55.670;37.596;2023-04-25T09:05:12;0.00;;;0.00;;
51080;SDS011;37130;55.670;37.596;2023-04-25T09:07:42;0.00;;;0.00;;
51080;SDS011;37130;55.670;37.596;2023-04-25T09:10:10;0.08;;;0.00;;
51080;SDS011;37130;55.670;37.596;2023-04-25T09:12:38;0.00;;;0.00;;
51080;SDS011;37130;55.670;37.596;2023-04-25T09:15:12;0.00;;;0.00;;
51080;SDS011;37130;55.670;37.596;2023-04-25T09:17:54;0.00;;;0.00;;
51080;SDS011;37130;55.670;37.596;2023-04-25T09:20:34;0.00;;;0.00;;
51080;SDS011;37130;55.670;37.596;2023-04-25T09:23:26;0.00;;;0.00;;
51080;SDS011;37130;55.670;37.596;2023-04-25T09:25:54;0.10;;;0.00;;
51080;SDS011;37130;55.670;37.596;2023-04-25T09:28:25;0.00;;;0.00;;
51080;SDS011;37130;55.670;37.596;2023-04-25T09:30:58;0.00;;;0.00;;
51080;SDS011;37130;55.670;37.596;2023-04-25T09:33:33;0.00;;;0.00;;
51080;SDS011;37130;55.670;37.596;2023-04-25T09:36:06;0.00;;;0.00;;
51080;SDS011;37130;55.670;37.596;2023-04-25T09:38:47;0.00;;;0.00;;
51080;SDS011;37130;55.670;37.596;2023-04-25T09:41:23;0.00;;;0.00;;
51080;SDS011;37130;55.670;37.596;2023-04-25T09:43:56;0.00;;;0.00;;
51080;SDS011;37130;55.670;37.596;2023-04-25T09:46:34;0.00;;;0.00;;
51080;SDS011;37130;55.670;37.596;2023-04-25T09:49:11;0.00;;;0.00;;
51080;SDS011;37130;55.670;37.596;2023-04-25T09:52:08;0.00;;;0.00;;
51080;SDS011;37130;55.670;37.596;2023-04-25T09:54:44;0.00;;;0.00;;
51080;SDS011;37130;55.670;37.596;2023-04-25T09:57:15;0.00;;;0.00;;
51080;SDS011;37130;55.670;37.596;2023-04-25T09:59:46;0.00;;;0.00;;
51080;SDS011;37130;55.670;37.596;2023-04-25T10:02:23;0.00;;;0.00;;
51080;SDS011;37130;55.670;37.596;2023-04-25T10:04:58;0.00;;;0.00;;
51080;SDS011;37130;55.670;37.596;2023-04-25T10:07:37;0.00;;;0.00;;
51080;SDS011;37130;55.670;37.596;2023-04-25T10:10:10;0.00;;;0.00;;
51080;SDS011;37130;55.670;37.596;2023-04-25T10:12:40;0.00;;;0.00;;
51080;SDS011;37130;55.670;37.596;2023-04-25T10:15:10;0.00;;;0.00;;
51080;SDS011;37130;55.670;37.596;2023-04-25T10:17:39;0.00;;;0.00;;
51080;SDS011;37130;55.670;37.596;2023-04-25T10:20:07;0.00;;;0.00;;
51080;SDS011;37130;55.670;37.596;2023-04-25T10:22:39;0.00;;;0.00;;
51080;SDS011;37130;55.670;37.596;2023-04-25T10:25:09;0.00;;;0.00;;
51080;SDS011;37130;55.670;37.596;2023-04-25T10:27:38;0.00;;;0.00;;
51080;SDS011;37130;55.670;37.596;2023-04-25T10:30:10;0.00;;;0.00;;
51080;SDS011;37130;55.670;37.596;2023-04-25T10:32:43;0.00;;;0.00;;
51080;SDS011;37130;55.670;37.596;2023-04-25T10:40:34;0.00;;;0.00;;
51080;SDS011;37130;55.670;37.596;2023-04-25T10:46:39;0.00;;;0.00;;
51080;SDS011;37130;55.670;37.596;2023-04-25T10:49:02;0.00;;;0.00;;
51080;SDS011;37130;55.670;37.596;2023-04-25T10:51:31;0.00;;;0.00;;
51080;SDS011;37130;55.670;37.596;2023-04-25T10:54:20;0.00;;;0.00;;
51080;SDS011;37130;55.670;37.596;2023-04-25T10:56:52;0.00;;;0.00;;
51080;SDS011;37130;55.670;37.596;2023-04-25T10:59:20;0.00;;;0.00;;
51080;SDS011;37130;55.670;37.596;2023-04-25T11:01:52;0.00;;;0.00;;
51080;SDS011;37130;55.670;37.596;2023-04-25T11:04:24;0.00;;;0.00;;
51080;SDS011;37130;55.670;37.596;2023-04-25T11:07:04;0.00;;;0.00;;
51080;SDS011;37130;55.670;37.596;2023-04-25T11:09:39;0.00;;;0.00;;
51080;SDS011;37130;55.670;37.596;2023-04-25T11:12:08;0.00;;;0.00;;
51080;SDS011;37130;55.670;37.596;2023-04-25T11:14:39;0.00;;;0.00;;
51080;SDS011;37130;55.670;37.596;2023-04-25T11:17:11;0.00;;;0.00;;
51080;SDS011;37130;55.670;37.596;2023-04-25T11:19:39;0.00;;;0.00;;
51080;SDS011;37130;55.670;37.596;2023-04-25T11:22:06;0.00;;;0.00;;
51080;SDS011;37130;55.670;37.596;2023-04-25T11:24:35;0.00;;;0.00;;
51080;SDS011;37130;55.670;37.596;2023-04-25T11:27:03;0.00;;;0.00;;
51080;SDS011;37130;55.670;37.596;2023-04-25T11:29:33;0.00;;;0.00;;
51080;SDS011;37130;55.670;37.596;2023-04-25T11:32:01;0.00;;;0.00;;
51080;SDS011;37130;55.670;37.596;2023-04-25T11:34:30;0.00;;;0.00;;
51080;SDS011;37130;55.670;37.596;2023-04-25T11:37:00;0.00;;;0.00;;
51080;SDS011;37130;55.670;37.596;2023-04-25T11:39:29;0.00;;;0.00;;
51080;SDS011;37130;55.670;37.596;2023-04-25T11:41:57;0.00;;;0.00;;
51080;SDS011;37130;55.670;37.596;2023-04-25T11:44:27;0.00;;;0.00;;
51080;SDS011;37130;55.670;37.596;2023-04-25T11:46:55;0.00;;;0.00;;
51080;SDS011;37130;55.670;37.596;2023-04-25T11:49:22;0.00;;;0.00;;
51080;SDS011;37130;55.670;37.596;2023-04-25T11:51:51;0.00;;;0.00;;
51080;SDS011;37130;55.670;37.596;2023-04-25T11:54:19;0.00;;;0.00;;
51080;SDS011;37130;55.670;37.596;2023-04-25T11:56:47;0.00;;;0.00;;
51080;SDS011;37130;55.670;37.596;2023-04-25T11:59:15;0.00;;;0.00;;
51080;SDS011;37130;55.670;37.596;2023-04-25T12:01:49;0.00;;;0.00;;
51080;SDS011;37130;55.670;37.596;2023-04-25T12:04:23;0.00;;;0.00;;
51080;SDS011;37130;55.670;37.596;2023-04-25T12:06:53;0.00;;;0.00;;
51080;SDS011;37130;55.670;37.596;2023-04-25T12:09:32;0.00;;;0.00;;
51080;SDS011;37130;55.670;37.596;2023-04-25T12:12:00;0.00;;;0.00;;
51080;SDS011;37130;55.670;37.596;2023-04-25T12:14:33;0.00;;;0.00;;
51080;SDS011;37130;55.670;37.596;2023-04-25T12:17:03;0.00;;;0.00;;
51080;SDS011;37130;55.670;37.596;2023-04-25T12:19:33;0.00;;;0.00;;
51080;SDS011;37130;55.670;37.596;2023-04-25T12:22:03;0.00;;;0.00;;
51080;SDS011;37130;55.670;37.596;2023-04-25T12:24:45;0.00;;;0.00;;
51080;SDS011;37130;55.670;37.596;2023-04-25T12:27:14;0.00;;;0.00;;
51080;SDS011;37130;55.670;37.596;2023-04-25T12:29:50;0.00;;;0.00;;
51080;SDS011;37130;55.670;37.596;2023-04-25T12:32:29;0.00;;;0.00;;
51080;SDS011;37130;55.670;37.596;2023-04-25T12:34:56;0.00;;;0.00;;
51080;SDS011;37130;55.670;37.596;2023-04-25T12:37:24;0.00;;;0.00;;
51080;SDS011;37130;55.670;37.596;2023-04-25T12:39:52;0.00;;;0.00;;
51080;SDS011;37130;55.670;37.596;2023-04-25T12:42:19;0.00;;;0.00;;
51080;SDS011;37130;55.670;37.596;2023-04-25T12:44:47;0.00;;;0.00;;
51080;SDS011;37130;55.670;37.596;2023-04-25T12:47:15;0.00;;;0.00;;
51080;SDS011;37130;55.670;37.596;2023-04-25T12:49:42;0.00;;;0.00;;
51080;SDS011;37130;55.670;37.596;2023-04-25T12:52:10;0.00;;;0.00;;
51080;SDS011;37130;55.670;37.596;2023-04-25T12:54:37;0.00;;;0.00;;
51080;SDS011;37130;55.670;37.596;2023-04-25T12:57:05;0.00;;;0.00;;
51080;SDS011;37130;55.670;37.596;2023-04-25T12:59:33;0.00;;;0.00;;
51080;SDS011;37130;55.670;37.596;2023-04-25T13:02:00;0.00;;;0.00;;
51080;SDS011;37130;55.670;37.596;2023-04-25T13:04:28;0.00;;;0.00;;
51080;SDS011;37130;55.670;37.596;2023-04-25T13:06:56;0.00;;;0.00;;
51080;SDS011;37130;55.670;37.596;2023-04-25T13:09:24;0.00;;;0.00;;
51080;SDS011;37130;55.670;37.596;2023-04-25T13:11:51;0.00;;;0.00;;
51080;SDS011;37130;55.670;37.596;2023-04-25T13:14:24;0.00;;;0.00;;
51080;SDS011;37130;55.670;37.596;2023-04-25T13:16:51;0.00;;;0.00;;
51080;SDS011;37130;55.670;37.596;2023-04-25T13:19:19;0.00;;;0.00;;
51080;SDS011;37130;55.670;37.596;2023-04-25T13:21:47;0.00;;;0.00;;
51080;SDS011;37130;55.670;37.596;2023-04-25T13:24:15;0.00;;;0.00;;
51080;SDS011;37130;55.670;37.596;2023-04-25T13:26:43;0.00;;;0.00;;
51080;SDS011;37130;55.670;37.596;2023-04-25T13:29:10;0.00;;;0.00;;
51080;SDS011;37130;55.670;37.596;2023-04-25T13:31:38;0.00;;;0.00;;
51080;SDS011;37130;55.670;37.596;2023-04-25T13:34:06;0.00;;;0.00;;
51080;SDS011;37130;55.670;37.596;2023-04-25T13:36:33;0.00;;;0.00;;
51080;SDS011;37130;55.670;37.596;2023-04-25T13:39:01;0.00;;;0.00;;
51080;SDS011;37130;55.670;37.596;2023-04-25T13:41:30;0.00;;;0.00;;
51080;SDS011;37130;55.670;37.596;2023-04-25T13:43:58;0.00;;;0.00;;
51080;SDS011;37130;55.670;37.596;2023-04-25T13:46:26;0.00;;;0.00;;
51080;SDS011;37130;55.670;37.596;2023-04-25T13:49:11;0.00;;;0.00;;
51080;SDS011;37130;55.670;37.596;2023-04-25T13:51:39;0.00;;;0.00;;
51080;SDS011;37130;55.670;37.596;2023-04-25T13:54:07;0.00;;;0.00;;
51080;SDS011;37130;55.670;37.596;2023-04-25T13:56:34;0.00;;;0.00;;
51080;SDS011;37130;55.670;37.596;2023-04-25T13:59:02;0.00;;;0.00;;
51080;SDS011;37130;55.670;37.596;2023-04-25T14:01:30;0.00;;;0.00;;
51080;SDS011;37130;55.670;37.596;2023-04-25T14:04:01;0.00;;;0.00;;
51080;SDS011;37130;55.670;37.596;2023-04-25T14:06:31;0.00;;;0.00;;
51080;SDS011;37130;55.670;37.596;2023-04-25T14:09:00;0.00;;;0.00;;
51080;SDS011;37130;55.670;37.596;2023-04-25T14:11:31;0.00;;;0.00;;
51080;SDS011;37130;55.670;37.596;2023-04-25T14:13:59;0.00;;;0.00;;
51080;SDS011;37130;55.670;37.596;2023-04-25T14:16:27;0.00;;;0.00;;
51080;SDS011;37130;55.670;37.596;2023-04-25T14:18:54;0.00;;;0.00;;
51080;SDS011;37130;55.670;37.596;2023-04-25T14:21:22;0.00;;;0.00;;
51080;SDS011;37130;55.670;37.596;2023-04-25T14:23:50;0.00;;;0.00;;
51080;SDS011;37130;55.670;37.596;2023-04-25T14:26:18;0.00;;;0.00;;
51080;SDS011;37130;55.670;37.596;2023-04-25T14:28:46;0.00;;;0.00;;
51080;SDS011;37130;55.670;37.596;2023-04-25T14:31:14;0.00;;;0.00;;
51080;SDS011;37130;55.670;37.596;2023-04-25T14:33:42;0.00;;;0.00;;
51080;SDS011;37130;55.670;37.596;2023-04-25T14:36:10;0.00;;;0.00;;
51080;SDS011;37130;55.670;37.596;2023-04-25T14:38:38;0.00;;;0.00;;
51080;SDS011;37130;55.670;37.596;2023-04-25T14:41:05;0.00;;;0.00;;
51080;SDS011;37130;55.670;37.596;2023-04-25T14:43:33;0.00;;;0.00;;
51080;SDS011;37130;55.670;37.596;2023-04-25T14:46:01;0.00;;;0.00;;
51080;SDS011;37130;55.670;37.596;2023-04-25T14:48:29;0.00;;;0.00;;
51080;SDS011;37130;55.670;37.596;2023-04-25T14:50:57;0.00;;;0.00;;
51080;SDS011;37130;55.670;37.596;2023-04-25T14:53:25;0.00;;;0.00;;
51080;SDS011;37130;55.670;37.596;2023-04-25T14:55:52;0.00;;;0.00;;
51080;SDS011;37130;55.670;37.596;2023-04-25T14:58:21;0.00;;;0.00;;
51080;SDS011;37130;55.670;37.596;2023-04-25T15:00:50;0.00;;;0.00;;
51080;SDS011;37130;55.670;37.596;2023-04-25T15:03:18;0.00;;;0.00;;
51080;SDS011;37130;55.670;37.596;2023-04-25T15:05:47;0.00;;;0.00;;
51080;SDS011;37130;55.670;37.596;2023-04-25T15:08:14;0.00;;;0.00;;
51080;SDS011;37130;55.670;37.596;2023-04-25T15:10:42;0.00;;;0.00;;